sensor_id;sensor_type;location;lat;lon;timestamp;pressure;altitude;pressure_sealevel;temperature;humidity
29239;BME280;16267;48.194;11.546;2023-07-16T00:02:14;95669.81;;;24.96;66.88
29239;BME280;16267;48.194;11.546;2023-07-16T00:04:40;95661.28;;;25.10;64.64
29239;BME280;16267;48.194;11.546;2023-07-16T00:07:06;95661.56;;;25.07;65.30
29239;BME280;16267;48.194;11.546;2023-07-16T00:09:31;95671.53;;;25.10;65.17
29239;BME280;16267;48.194;11.546;2023-07-16T00:11:57;95678.03;;;25.01;65.70
29239;BME280;16267;48.194;11.546;2023-07-16T00:14:23;95690.81;;;24.87;66.97
29239;BME280;16267;48.194;11.546;2023-07-16T00:16:48;95697.28;;;24.90;66.73
29239;BME280;16267;48.194;11.546;2023-07-16T00:19:15;95684.53;;;24.98;65.27
29239;BME280;16267;48.194;11.546;2023-07-16T00:21:40;95674.81;;;25.03;64.24
29239;BME280;16267;48.194;11.546;2023-07-16T00:24:06;95675.00;;;25.10;63.14
29239;BME280;16267;48.194;11.546;2023-07-16T00:26:32;95679.03;;;25.15;63.94
29239;BME280;16267;48.194;11.546;2023-07-16T00:28:58;95680.25;;;25.14;64.41
29239;BME280;16267;48.194;11.546;2023-07-16T00:31:23;95686.25;;;25.07;65.30
29239;BME280;16267;48.194;11.546;2023-07-16T00:33:49;95683.78;;;25.09;65.40
29239;BME280;16267;48.194;11.546;2023-07-16T00:36:15;95683.78;;;25.09;65.14
29239;BME280;16267;48.194;11.546;2023-07-16T00:38:40;95701.47;;;25.08;64.95
29239;BME280;16267;48.194;11.546;2023-07-16T00:41:07;95708.97;;;25.07;63.94
29239;BME280;16267;48.194;11.546;2023-07-16T00:43:33;95725.72;;;25.04;64.54
29239;BME280;16267;48.194;11.546;2023-07-16T00:45:58;95755.66;;;25.07;63.44
29239;BME280;16267;48.194;11.546;2023-07-16T00:48:24;95768.88;;;25.09;63.24
29239;BME280;16267;48.194;11.546;2023-07-16T00:50:53;95790.84;;;25.09;63.64
29239;BME280;16267;48.194;11.546;2023-07-16T00:53:20;95828.78;;;25.10;62.54
29239;BME280;16267;48.194;11.546;2023-07-16T00:55:46;95853.75;;;25.12;62.32
29239;BME280;16267;48.194;11.546;2023-07-16T00:58:12;95878.47;;;25.12;62.62
29239;BME280;16267;48.194;11.546;2023-07-16T01:00:40;95877.47;;;25.04;65.53
29239;BME280;16267;48.194;11.546;2023-07-16T01:03:11;95871.47;;;24.78;68.62
29239;BME280;16267;48.194;11.546;2023-07-16T01:06:32;95898.41;;;24.85;66.74
29239;BME280;16267;48.194;11.546;2023-07-16T01:09:17;95911.13;;;24.82;66.63
29239;BME280;16267;48.194;11.546;2023-07-16T01:11:44;95921.06;;;24.68;68.40
29239;BME280;16267;48.194;11.546;2023-07-16T01:14:12;95909.72;;;24.33;72.48
29239;BME280;16267;48.194;11.546;2023-07-16T01:16:38;95915.78;;;24.48;70.86
29239;BME280;16267;48.194;11.546;2023-07-16T01:19:04;95915.72;;;24.31;72.92
29239;BME280;16267;48.194;11.546;2023-07-16T01:22:03;95920.88;;;24.18;74.69
29239;BME280;16267;48.194;11.546;2023-07-16T01:25:01;95921.66;;;24.24;71.83
29239;BME280;16267;48.194;11.546;2023-07-16T01:28:05;95930.16;;;24.26;71.85
29239;BME280;16267;48.194;11.546;2023-07-16T01:30:38;95924.69;;;24.32;70.27
29239;BME280;16267;48.194;11.546;2023-07-16T01:33:05;95940.66;;;24.33;70.55
29239;BME280;16267;48.194;11.546;2023-07-16T01:35:33;95931.94;;;24.35;70.98
29239;BME280;16267;48.194;11.546;2023-07-16T01:38:00;95935.41;;;24.35;71.18
29239;BME280;16267;48.194;11.546;2023-07-16T01:40:26;95941.88;;;24.32;71.33
29239;BME280;16267;48.194;11.546;2023-07-16T01:42:52;95939.88;;;24.33;71.60
29239;BME280;16267;48.194;11.546;2023-07-16T01:45:17;95952.09;;;24.26;72.43
29239;BME280;16267;48.194;11.546;2023-07-16T01:48:09;95947.09;;;24.24;71.69
29239;BME280;16267;48.194;11.546;2023-07-16T01:50:39;95958.31;;;24.26;71.84
29239;BME280;16267;48.194;11.546;2023-07-16T01:53:05;95953.34;;;24.25;72.34
29239;BME280;16267;48.194;11.546;2023-07-16T01:55:31;95956.81;;;24.25;71.87
29239;BME280;16267;48.194;11.546;2023-07-16T01:57:56;95958.06;;;24.24;72.76
29239;BME280;16267;48.194;11.546;2023-07-16T02:00:22;95955.06;;;24.22;72.82
29239;BME280;16267;48.194;11.546;2023-07-16T02:02:48;95946.34;;;24.24;72.58
29239;BME280;16267;48.194;11.546;2023-07-16T02:05:15;95953.53;;;24.16;74.05
29239;BME280;16267;48.194;11.546;2023-07-16T02:07:40;95952.50;;;24.13;74.66
29239;BME280;16267;48.194;11.546;2023-07-16T02:10:06;95954.25;;;24.11;75.03
29239;BME280;16267;48.194;11.546;2023-07-16T02:12:32;95951.78;;;24.13;74.16
29239;BME280;16267;48.194;11.546;2023-07-16T02:14:58;95955.47;;;24.04;75.94
29239;BME280;16267;48.194;11.546;2023-07-16T02:17:24;95959.22;;;24.07;76.10
29239;BME280;16267;48.194;11.546;2023-07-16T02:19:49;95959.97;;;24.07;74.56
29239;BME280;16267;48.194;11.546;2023-07-16T02:22:15;95963.44;;;24.08;73.58
29239;BME280;16267;48.194;11.546;2023-07-16T02:24:41;95969.94;;;24.10;72.57
29239;BME280;16267;48.194;11.546;2023-07-16T02:27:07;95972.22;;;24.12;73.99
29239;BME280;16267;48.194;11.546;2023-07-16T02:29:33;95973.44;;;24.11;74.47
29239;BME280;16267;48.194;11.546;2023-07-16T02:31:58;95961.25;;;24.12;73.34
29239;BME280;16267;48.194;11.546;2023-07-16T02:34:24;95968.97;;;24.13;72.38
29239;BME280;16267;48.194;11.546;2023-07-16T02:36:50;95985.69;;;24.15;71.87
29239;BME280;16267;48.194;11.546;2023-07-16T02:39:15;95983.69;;;24.16;71.11
29239;BME280;16267;48.194;11.546;2023-07-16T02:41:41;95985.22;;;24.17;72.28
29239;BME280;16267;48.194;11.546;2023-07-16T02:44:09;95986.69;;;24.18;73.50
29239;BME280;16267;48.194;11.546;2023-07-16T02:46:34;95991.44;;;24.17;73.76
29239;BME280;16267;48.194;11.546;2023-07-16T02:49:02;95995.91;;;24.15;74.64
29239;BME280;16267;48.194;11.546;2023-07-16T02:51:28;95997.41;;;24.16;73.10
29239;BME280;16267;48.194;11.546;2023-07-16T02:53:53;95994.66;;;24.16;72.36
29239;BME280;16267;48.194;11.546;2023-07-16T02:56:19;96000.13;;;24.16;73.22
29239;BME280;16267;48.194;11.546;2023-07-16T02:58:45;95998.88;;;24.11;74.75
29239;BME280;16267;48.194;11.546;2023-07-16T03:01:12;95988.41;;;24.10;75.24
29239;BME280;16267;48.194;11.546;2023-07-16T03:03:38;95997.88;;;24.09;73.82
29239;BME280;16267;48.194;11.546;2023-07-16T03:06:03;96005.00;;;23.95;76.67
29239;BME280;16267;48.194;11.546;2023-07-16T03:08:29;96001.22;;;23.87;77.55
29239;BME280;16267;48.194;11.546;2023-07-16T03:10:57;96015.63;;;23.81;78.88
29239;BME280;16267;48.194;11.546;2023-07-16T03:13:23;96021.16;;;23.87;75.73
29239;BME280;16267;48.194;11.546;2023-07-16T03:15:49;96017.66;;;23.87;76.88
29239;BME280;16267;48.194;11.546;2023-07-16T03:18:17;96016.91;;;23.86;76.55
29239;BME280;16267;48.194;11.546;2023-07-16T03:20:43;96020.66;;;23.89;76.44
29239;BME280;16267;48.194;11.546;2023-07-16T03:23:09;96024.41;;;23.91;75.38
29239;BME280;16267;48.194;11.546;2023-07-16T03:25:34;96011.72;;;23.94;74.25
29239;BME280;16267;48.194;11.546;2023-07-16T03:28:00;96008.50;;;23.95;74.25
29239;BME280;16267;48.194;11.546;2023-07-16T03:30:26;96017.00;;;23.97;73.75
29239;BME280;16267;48.194;11.546;2023-07-16T03:32:51;96032.94;;;23.99;73.18
29239;BME280;16267;48.194;11.546;2023-07-16T03:35:17;96026.97;;;24.00;73.25
29239;BME280;16267;48.194;11.546;2023-07-16T03:37:43;96034.69;;;24.02;71.81
29239;BME280;16267;48.194;11.546;2023-07-16T03:40:17;96041.44;;;24.01;74.94
29239;BME280;16267;48.194;11.546;2023-07-16T03:42:43;96038.69;;;24.01;74.15
29239;BME280;16267;48.194;11.546;2023-07-16T03:45:12;96042.91;;;24.02;73.21
29239;BME280;16267;48.194;11.546;2023-07-16T03:47:39;96028.47;;;24.01;72.37
29239;BME280;16267;48.194;11.546;2023-07-16T03:50:06;96025.25;;;24.03;72.22
29239;BME280;16267;48.194;11.546;2023-07-16T03:52:32;96032.69;;;24.02;72.24
29239;BME280;16267;48.194;11.546;2023-07-16T03:54:57;96049.16;;;24.02;71.23
29239;BME280;16267;48.194;11.546;2023-07-16T03:57:23;96043.41;;;24.00;71.17
29239;BME280;16267;48.194;11.546;2023-07-16T03:59:49;96050.91;;;24.00;70.39
29239;BME280;16267;48.194;11.546;2023-07-16T04:02:15;96053.66;;;24.00;69.76
29239;BME280;16267;48.194;11.546;2023-07-16T04:04:40;96055.63;;;23.99;69.30
29239;BME280;16267;48.194;11.546;2023-07-16T04:07:07;96042.41;;;23.98;69.18
29239;BME280;16267;48.194;11.546;2023-07-16T04:09:33;96045.16;;;23.98;68.48
29239;BME280;16267;48.194;11.546;2023-07-16T04:11:58;96043.16;;;23.98;68.26
29239;BME280;16267;48.194;11.546;2023-07-16T04:14:24;96055.38;;;23.97;67.56
29239;BME280;16267;48.194;11.546;2023-07-16T04:16:50;96068.31;;;23.97;67.73
29239;BME280;16267;48.194;11.546;2023-07-16T04:19:15;96082.75;;;23.92;68.39
29239;BME280;16267;48.194;11.546;2023-07-16T04:21:41;96104.63;;;23.86;68.75
29239;BME280;16267;48.194;11.546;2023-07-16T04:24:07;96101.75;;;23.75;71.33
29239;BME280;16267;48.194;11.546;2023-07-16T04:26:37;96089.50;;;23.70;72.77
29239;BME280;16267;48.194;11.546;2023-07-16T04:29:02;96084.25;;;23.67;73.23
29239;BME280;16267;48.194;11.546;2023-07-16T04:31:28;96089.44;;;23.65;73.97
29239;BME280;16267;48.194;11.546;2023-07-16T04:33:54;96096.66;;;23.62;72.92
29239;BME280;16267;48.194;11.546;2023-07-16T04:36:20;96095.13;;;23.61;72.17
29239;BME280;16267;48.194;11.546;2023-07-16T04:38:45;96095.13;;;23.61;72.44
29239;BME280;16267;48.194;11.546;2023-07-16T04:41:11;96103.34;;;23.61;72.94
29239;BME280;16267;48.194;11.546;2023-07-16T04:43:39;96108.56;;;23.59;76.14
29239;BME280;16267;48.194;11.546;2023-07-16T04:46:05;96108.28;;;23.57;77.53
29239;BME280;16267;48.194;11.546;2023-07-16T04:48:30;96109.25;;;23.54;78.46
29239;BME280;16267;48.194;11.546;2023-07-16T04:50:56;96106.25;;;23.52;79.09
29239;BME280;16267;48.194;11.546;2023-07-16T04:53:23;96104.47;;;23.49;79.86
29239;BME280;16267;48.194;11.546;2023-07-16T04:55:48;96102.72;;;23.46;80.07
29239;BME280;16267;48.194;11.546;2023-07-16T04:58:15;96088.75;;;23.44;79.81
29239;BME280;16267;48.194;11.546;2023-07-16T05:00:41;96085.72;;;23.42;78.92
29239;BME280;16267;48.194;11.546;2023-07-16T05:03:07;96090.44;;;23.41;77.59
29239;BME280;16267;48.194;11.546;2023-07-16T05:05:33;96086.50;;;23.42;77.97
29239;BME280;16267;48.194;11.546;2023-07-16T05:07:59;96092.72;;;23.43;78.24
29239;BME280;16267;48.194;11.546;2023-07-16T05:10:24;96096.44;;;23.40;78.58
29239;BME280;16267;48.194;11.546;2023-07-16T05:12:50;96093.19;;;23.41;77.82
29239;BME280;16267;48.194;11.546;2023-07-16T05:15:16;96098.19;;;23.43;77.18
29239;BME280;16267;48.194;11.546;2023-07-16T05:17:42;96105.16;;;23.44;76.99
29239;BME280;16267;48.194;11.546;2023-07-16T05:20:08;96101.97;;;23.45;77.84
29239;BME280;16267;48.194;11.546;2023-07-16T05:22:35;96115.66;;;23.45;77.89
29239;BME280;16267;48.194;11.546;2023-07-16T05:25:01;96117.16;;;23.46;77.59
29239;BME280;16267;48.194;11.546;2023-07-16T05:27:28;96107.69;;;23.47;77.32
29239;BME280;16267;48.194;11.546;2023-07-16T05:29:54;96108.47;;;23.48;77.95
29239;BME280;16267;48.194;11.546;2023-07-16T05:32:20;96111.19;;;23.48;78.45
29239;BME280;16267;48.194;11.546;2023-07-16T05:34:45;96106.47;;;23.48;79.77
29239;BME280;16267;48.194;11.546;2023-07-16T05:37:11;96115.44;;;23.49;79.32
29239;BME280;16267;48.194;11.546;2023-07-16T05:39:37;96110.69;;;23.49;78.66
29239;BME280;16267;48.194;11.546;2023-07-16T05:42:04;96116.94;;;23.50;80.60
29239;BME280;16267;48.194;11.546;2023-07-16T05:46:56;96124.41;;;23.49;80.76
29239;BME280;16267;48.194;11.546;2023-07-16T05:49:23;96129.13;;;23.49;79.46
29239;BME280;16267;48.194;11.546;2023-07-16T05:51:49;96139.63;;;23.50;78.51
29239;BME280;16267;48.194;11.546;2023-07-16T05:54:15;96150.06;;;23.52;79.71
29239;BME280;16267;48.194;11.546;2023-07-16T05:56:43;96148.09;;;23.52;80.92
29239;BME280;16267;48.194;11.546;2023-07-16T05:59:09;96157.53;;;23.51;81.81
29239;BME280;16267;48.194;11.546;2023-07-16T06:01:35;96159.03;;;23.52;79.83
29239;BME280;16267;48.194;11.546;2023-07-16T06:04:01;96164.81;;;23.54;80.74
29239;BME280;16267;48.194;11.546;2023-07-16T06:06:28;96158.06;;;23.55;83.29
29239;BME280;16267;48.194;11.546;2023-07-16T06:08:54;96154.88;;;23.57;83.80
29239;BME280;16267;48.194;11.546;2023-07-16T06:11:20;96158.06;;;23.55;84.24
29239;BME280;16267;48.194;11.546;2023-07-16T06:13:46;96158.06;;;23.55;84.11
29239;BME280;16267;48.194;11.546;2023-07-16T06:16:12;96151.84;;;23.55;82.75
29239;BME280;16267;48.194;11.546;2023-07-16T06:18:37;96174.03;;;23.57;82.24
29239;BME280;16267;48.194;11.546;2023-07-16T06:21:03;96174.03;;;23.57;80.89
29239;BME280;16267;48.194;11.546;2023-07-16T06:23:29;96184.53;;;23.58;84.38
29239;BME280;16267;48.194;11.546;2023-07-16T06:25:56;96179.81;;;23.59;84.57
29239;BME280;16267;48.194;11.546;2023-07-16T06:28:22;96171.09;;;23.60;85.48
29239;BME280;16267;48.194;11.546;2023-07-16T06:30:49;96177.88;;;23.65;86.43
29239;BME280;16267;48.194;11.546;2023-07-16T06:33:15;96177.66;;;23.69;86.54
29239;BME280;16267;48.194;11.546;2023-07-16T06:35:45;96187.38;;;23.70;85.70
29239;BME280;16267;48.194;11.546;2023-07-16T06:38:11;96182.66;;;23.70;84.23
29239;BME280;16267;48.194;11.546;2023-07-16T06:40:37;96185.22;;;23.74;82.39
29239;BME280;16267;48.194;11.546;2023-07-16T06:43:03;96182.00;;;23.75;82.17
29239;BME280;16267;48.194;11.546;2023-07-16T06:45:28;96176.28;;;23.79;83.45
29239;BME280;16267;48.194;11.546;2023-07-16T06:47:57;96173.84;;;23.81;82.10
29239;BME280;16267;48.194;11.546;2023-07-16T06:50:22;96175.38;;;23.88;82.81
29239;BME280;16267;48.194;11.546;2023-07-16T06:52:48;96177.44;;;23.93;84.84
29239;BME280;16267;48.194;11.546;2023-07-16T06:55:14;96183.66;;;23.93;85.00
29239;BME280;16267;48.194;11.546;2023-07-16T06:57:40;96181.47;;;23.97;83.17
29239;BME280;16267;48.194;11.546;2023-07-16T07:00:07;96179.94;;;23.96;83.89
29239;BME280;16267;48.194;11.546;2023-07-16T07:02:36;96185.69;;;23.98;81.08
29239;BME280;16267;48.194;11.546;2023-07-16T07:05:02;96194.72;;;24.04;80.51
29239;BME280;16267;48.194;11.546;2023-07-16T07:07:28;96191.28;;;24.10;82.30
29239;BME280;16267;48.194;11.546;2023-07-16T07:09:54;96190.03;;;24.11;84.09
29239;BME280;16267;48.194;11.546;2023-07-16T07:12:19;96187.78;;;24.09;84.50
29239;BME280;16267;48.194;11.546;2023-07-16T07:14:47;96187.56;;;24.13;82.71
29239;BME280;16267;48.194;11.546;2023-07-16T07:17:14;96181.97;;;24.01;82.05
29239;BME280;16267;48.194;11.546;2023-07-16T07:19:41;96178.22;;;23.99;83.42
29239;BME280;16267;48.194;11.546;2023-07-16T07:22:06;96173.25;;;23.97;82.52
29239;BME280;16267;48.194;11.546;2023-07-16T07:24:35;96181.19;;;23.95;81.01
29239;BME280;16267;48.194;11.546;2023-07-16T07:27:01;96178.91;;;23.94;79.41
29239;BME280;16267;48.194;11.546;2023-07-16T07:29:28;96184.41;;;23.94;77.88
29239;BME280;16267;48.194;11.546;2023-07-16T07:31:53;96195.81;;;23.87;77.36
29239;BME280;16267;48.194;11.546;2023-07-16T07:34:22;96179.84;;;23.85;77.26
29239;BME280;16267;48.194;11.546;2023-07-16T07:36:48;96191.66;;;23.71;76.93
29239;BME280;16267;48.194;11.546;2023-07-16T07:39:14;96189.44;;;23.75;77.31
29239;BME280;16267;48.194;11.546;2023-07-16T07:41:40;96189.25;;;23.78;76.51
29239;BME280;16267;48.194;11.546;2023-07-16T07:44:05;96190.75;;;23.79;77.59
29239;BME280;16267;48.194;11.546;2023-07-16T07:46:34;96184.50;;;23.79;75.93
29239;BME280;16267;48.194;11.546;2023-07-16T07:49:00;96190.47;;;23.77;77.10
29239;BME280;16267;48.194;11.546;2023-07-16T07:51:25;96188.97;;;23.76;77.79
29239;BME280;16267;48.194;11.546;2023-07-16T07:53:51;96180.75;;;23.76;77.35
29239;BME280;16267;48.194;11.546;2023-07-16T07:56:17;96181.50;;;23.77;78.58
29239;BME280;16267;48.194;11.546;2023-07-16T07:58:42;96181.78;;;23.79;79.52
29239;BME280;16267;48.194;11.546;2023-07-16T08:01:09;96185.03;;;23.83;78.25
29239;BME280;16267;48.194;11.546;2023-07-16T08:03:35;96181.28;;;23.80;75.83
29239;BME280;16267;48.194;11.546;2023-07-16T08:06:01;96177.03;;;23.79;75.73
29239;BME280;16267;48.194;11.546;2023-07-16T08:08:27;96176.25;;;23.73;77.45
29239;BME280;16267;48.194;11.546;2023-07-16T08:10:54;96173.28;;;23.77;76.64
29239;BME280;16267;48.194;11.546;2023-07-16T08:13:23;96171.84;;;23.81;76.48
29239;BME280;16267;48.194;11.546;2023-07-16T08:15:49;96164.59;;;23.78;75.26
29239;BME280;16267;48.194;11.546;2023-07-16T08:18:15;96166.88;;;23.86;75.92
29239;BME280;16267;48.194;11.546;2023-07-16T08:20:40;96164.00;;;23.95;74.86
29239;BME280;16267;48.194;11.546;2023-07-16T08:23:09;96156.34;;;24.04;74.10
29239;BME280;16267;48.194;11.546;2023-07-16T08:25:35;96155.69;;;24.15;73.74
29239;BME280;16267;48.194;11.546;2023-07-16T08:28:04;96156.75;;;24.23;75.18
29239;BME280;16267;48.194;11.546;2023-07-16T08:30:40;96163.28;;;24.32;74.71
29239;BME280;16267;48.194;11.546;2023-07-16T08:33:05;96158.31;;;24.36;72.67
29239;BME280;16267;48.194;11.546;2023-07-16T08:35:44;96159.09;;;24.36;70.88
29239;BME280;16267;48.194;11.546;2023-07-16T08:38:10;96155.63;;;24.41;70.52
29239;BME280;16267;48.194;11.546;2023-07-16T08:40:40;96155.44;;;24.45;69.97
29239;BME280;16267;48.194;11.546;2023-07-16T08:43:06;96150.75;;;24.51;69.48
29239;BME280;16267;48.194;11.546;2023-07-16T08:45:43;96149.28;;;24.56;69.72
29239;BME280;16267;48.194;11.546;2023-07-16T08:48:17;96140.81;;;24.59;69.04
29239;BME280;16267;48.194;11.546;2023-07-16T08:50:49;96136.63;;;24.64;68.00
29239;BME280;16267;48.194;11.546;2023-07-16T08:53:18;96129.88;;;24.65;68.14
29239;BME280;16267;48.194;11.546;2023-07-16T08:55:47;96127.09;;;24.59;71.18
29239;BME280;16267;48.194;11.546;2023-07-16T08:58:15;96128.91;;;24.68;69.71
29239;BME280;16267;48.194;11.546;2023-07-16T09:00:48;96127.13;;;24.65;68.21
29239;BME280;16267;48.194;11.546;2023-07-16T09:03:14;96142.13;;;24.69;68.12
29239;BME280;16267;48.194;11.546;2023-07-16T09:05:44;96137.41;;;24.70;66.24
29239;BME280;16267;48.194;11.546;2023-07-16T09:08:10;96133.44;;;24.77;66.59
29239;BME280;16267;48.194;11.546;2023-07-16T09:10:37;96133.19;;;24.80;66.50
29239;BME280;16267;48.194;11.546;2023-07-16T09:13:10;96132.97;;;24.84;66.89
29239;BME280;16267;48.194;11.546;2023-07-16T09:16:01;96132.03;;;24.92;66.65
29239;BME280;16267;48.194;11.546;2023-07-16T09:18:46;96134.53;;;25.02;67.65
29239;BME280;16267;48.194;11.546;2023-07-16T09:21:21;96135.81;;;25.06;65.57
29239;BME280;16267;48.194;11.546;2023-07-16T09:23:52;96138.84;;;25.14;66.25
29239;BME280;16267;48.194;11.546;2023-07-16T09:26:27;96130.63;;;25.14;66.03
29239;BME280;16267;48.194;11.546;2023-07-16T09:28:53;96132.91;;;25.21;66.17
29239;BME280;16267;48.194;11.546;2023-07-16T09:31:18;96125.94;;;25.26;65.17
29239;BME280;16267;48.194;11.546;2023-07-16T09:33:47;96132.19;;;25.32;64.48
29239;BME280;16267;48.194;11.546;2023-07-16T09:36:25;96126.97;;;25.34;64.46
29239;BME280;16267;48.194;11.546;2023-07-16T09:39:00;96124.97;;;25.34;63.82
29239;BME280;16267;48.194;11.546;2023-07-16T09:41:27;96110.75;;;25.42;62.91
29239;BME280;16267;48.194;11.546;2023-07-16T09:43:54;96111.25;;;25.51;63.55
29239;BME280;16267;48.194;11.546;2023-07-16T09:46:20;96106.53;;;25.57;63.13
29239;BME280;16267;48.194;11.546;2023-07-16T09:48:46;96108.28;;;25.60;62.61
29239;BME280;16267;48.194;11.546;2023-07-16T09:51:12;96100.81;;;25.72;63.42
29239;BME280;16267;48.194;11.546;2023-07-16T09:53:44;96104.81;;;25.82;63.07
29239;BME280;16267;48.194;11.546;2023-07-16T09:56:12;96099.84;;;25.92;62.90
29239;BME280;16267;48.194;11.546;2023-07-16T09:58:39;96099.09;;;26.03;62.68
29239;BME280;16267;48.194;11.546;2023-07-16T10:01:06;96095.59;;;26.14;61.40
29239;BME280;16267;48.194;11.546;2023-07-16T10:03:32;96106.84;;;26.10;58.13
29239;BME280;16267;48.194;11.546;2023-07-16T10:06:08;96107.59;;;26.16;59.23
29239;BME280;16267;48.194;11.546;2023-07-16T10:08:34;96104.34;;;26.18;58.05
29239;BME280;16267;48.194;11.546;2023-07-16T10:11:00;96101.31;;;26.21;58.03
29239;BME280;16267;48.194;11.546;2023-07-16T10:13:26;96103.09;;;26.24;58.01
29239;BME280;16267;48.194;11.546;2023-07-16T10:15:55;96098.56;;;26.27;57.92
29239;BME280;16267;48.194;11.546;2023-07-16T10:18:30;96096.81;;;26.24;58.52
29239;BME280;16267;48.194;11.546;2023-07-16T10:21:07;96102.56;;;26.32;57.81
29239;BME280;16267;48.194;11.546;2023-07-16T10:23:42;96092.28;;;26.43;56.91
29239;BME280;16267;48.194;11.546;2023-07-16T10:26:12;96093.81;;;26.50;55.64
29239;BME280;16267;48.194;11.546;2023-07-16T10:28:38;96094.06;;;26.58;55.31
29239;BME280;16267;48.194;11.546;2023-07-16T10:31:05;96085.03;;;26.57;53.93
29239;BME280;16267;48.194;11.546;2023-07-16T10:33:40;96087.56;;;26.55;54.81
29239;BME280;16267;48.194;11.546;2023-07-16T10:36:07;96089.06;;;26.45;51.92
29239;BME280;16267;48.194;11.546;2023-07-16T10:38:40;96086.03;;;26.43;53.23
29239;BME280;16267;48.194;11.546;2023-07-16T10:41:07;96086.56;;;26.47;53.63
29239;BME280;16267;48.194;11.546;2023-07-16T10:43:33;96086.31;;;26.51;53.11
29239;BME280;16267;48.194;11.546;2023-07-16T10:45:59;96083.03;;;26.52;52.16
29239;BME280;16267;48.194;11.546;2023-07-16T10:48:27;96078.31;;;26.53;52.00
29239;BME280;16267;48.194;11.546;2023-07-16T10:50:56;96078.03;;;26.56;52.46
29239;BME280;16267;48.194;11.546;2023-07-16T10:53:22;96073.78;;;26.50;52.61
29239;BME280;16267;48.194;11.546;2023-07-16T10:55:47;96078.78;;;26.57;53.80
29239;BME280;16267;48.194;11.546;2023-07-16T10:58:13;96071.78;;;26.56;53.84
29239;BME280;16267;48.194;11.546;2023-07-16T11:00:40;96081.78;;;26.59;53.68
29239;BME280;16267;48.194;11.546;2023-07-16T11:03:06;96076.28;;;26.59;53.00
29239;BME280;16267;48.194;11.546;2023-07-16T11:05:32;96081.53;;;26.62;53.01
29239;BME280;16267;48.194;11.546;2023-07-16T11:07:58;96072.25;;;26.65;54.08
29239;BME280;16267;48.194;11.546;2023-07-16T11:10:24;96083.03;;;26.69;53.27
29239;BME280;16267;48.194;11.546;2023-07-16T11:12:53;96075.97;;;26.74;53.10
29239;BME280;16267;48.194;11.546;2023-07-16T11:15:30;96078.25;;;26.75;54.03
29239;BME280;16267;48.194;11.546;2023-07-16T11:17:55;96082.00;;;26.78;54.95
29239;BME280;16267;48.194;11.546;2023-07-16T11:20:22;96071.44;;;26.82;54.85
29239;BME280;16267;48.194;11.546;2023-07-16T11:22:48;96076.69;;;26.85;54.50
29239;BME280;16267;48.194;11.546;2023-07-16T11:25:13;96072.16;;;26.88;54.14
29239;BME280;16267;48.194;11.546;2023-07-16T11:27:41;96055.41;;;26.91;53.81
29239;BME280;16267;48.194;11.546;2023-07-16T11:30:08;96064.66;;;26.94;53.19
29239;BME280;16267;48.194;11.546;2023-07-16T11:32:37;96066.41;;;26.97;52.82
29239;BME280;16267;48.194;11.546;2023-07-16T11:35:05;96068.66;;;26.93;53.60
29239;BME280;16267;48.194;11.546;2023-07-16T11:37:35;96072.91;;;26.94;53.45
29239;BME280;16267;48.194;11.546;2023-07-16T11:40:07;96059.63;;;26.98;53.35
29239;BME280;16267;48.194;11.546;2023-07-16T11:42:38;96049.13;;;26.97;52.47
29239;BME280;16267;48.194;11.546;2023-07-16T11:45:14;96048.28;;;27.07;52.58
29239;BME280;16267;48.194;11.546;2023-07-16T11:47:40;96062.81;;;27.19;52.21
29239;BME280;16267;48.194;11.546;2023-07-16T11:50:07;96051.25;;;27.21;53.19
29239;BME280;16267;48.194;11.546;2023-07-16T11:52:32;96045.69;;;27.32;53.04
29239;BME280;16267;48.194;11.546;2023-07-16T11:54:59;96034.06;;;27.50;53.25
29239;BME280;16267;48.194;11.546;2023-07-16T11:57:29;96033.72;;;27.59;52.86
29239;BME280;16267;48.194;11.546;2023-07-16T11:59:56;96029.94;;;27.63;52.27
29239;BME280;16267;48.194;11.546;2023-07-16T12:02:22;96031.81;;;27.79;52.73
29239;BME280;16267;48.194;11.546;2023-07-16T12:04:48;96033.94;;;27.97;52.14
29239;BME280;16267;48.194;11.546;2023-07-16T12:07:14;96041.09;;;28.12;51.33
29239;BME280;16267;48.194;11.546;2023-07-16T12:09:40;96031.47;;;28.24;51.44
29239;BME280;16267;48.194;11.546;2023-07-16T12:12:07;96036.38;;;28.31;51.71
29239;BME280;16267;48.194;11.546;2023-07-16T12:14:32;96029.31;;;28.36;51.20
29239;BME280;16267;48.194;11.546;2023-07-16T12:16:58;96027.06;;;28.34;50.76
29239;BME280;16267;48.194;11.546;2023-07-16T12:19:25;96031.03;;;28.39;50.26
29239;BME280;16267;48.194;11.546;2023-07-16T12:21:51;96020.50;;;28.37;50.69
29239;BME280;16267;48.194;11.546;2023-07-16T12:24:17;96018.72;;;28.40;49.88
29239;BME280;16267;48.194;11.546;2023-07-16T12:26:43;96014.47;;;28.39;49.53
29239;BME280;16267;48.194;11.546;2023-07-16T12:29:08;96024.25;;;28.40;50.23
29239;BME280;16267;48.194;11.546;2023-07-16T12:31:34;96024.38;;;28.29;51.82
29239;BME280;16267;48.194;11.546;2023-07-16T12:34:01;96024.19;;;28.21;50.38
29239;BME280;16267;48.194;11.546;2023-07-16T12:36:31;96020.00;;;28.14;50.85
29239;BME280;16267;48.194;11.546;2023-07-16T12:38:57;96025.88;;;28.05;50.70
29239;BME280;16267;48.194;11.546;2023-07-16T12:41:22;96020.91;;;27.98;52.81
29239;BME280;16267;48.194;11.546;2023-07-16T12:43:48;96021.38;;;28.02;52.93
29239;BME280;16267;48.194;11.546;2023-07-16T12:46:14;96026.66;;;28.00;53.58
29239;BME280;16267;48.194;11.546;2023-07-16T12:48:40;96024.13;;;28.02;53.66
29239;BME280;16267;48.194;11.546;2023-07-16T12:51:05;96035.91;;;28.02;54.01
29239;BME280;16267;48.194;11.546;2023-07-16T12:53:32;96037.16;;;28.01;53.63
29239;BME280;16267;48.194;11.546;2023-07-16T12:55:58;96031.66;;;28.01;53.58